Time;durP1;ratioP1;P1;durP2;ratioP2;P2;SDS_P1;SDS_P2;PMS_P1;PMS_P2;Temp;Humidity;BMP_temperature;BMP_pressure;BME280_temperature;BME280_humidity;BME280_pressure;Samples;Min_cycle;Max_cycle;Signal;HPM_P1;HPM_P2
2022/10/12 00:00:05;;;;;;;10.93;4.75;;;9.60;69.70;;;;;;5114571;28;20054;-73
2022/10/12 00:02:31;;;;;;;11.88;4.82;;;9.50;70.20;;;;;;5114480;28;20024;-73
2022/10/12 00:04:56;;;;;;;7.00;4.40;;;9.50;70.60;;;;;;5114476;28;20104;-73
2022/10/12 00:07:22;;;;;;;9.73;4.88;;;9.40;71.50;;;;;;5096516;28;20118;-73
2022/10/12 00:09:47;;;;;;;9.70;4.70;;;9.40;70.60;;;;;;5114411;28;20042;-73
2022/10/12 00:12:13;;;;;;;12.00;5.32;;;9.60;70.90;;;;;;5096488;28;20097;-73
2022/10/12 00:14:39;;;;;;;7.13;4.60;;;9.50;70.60;;;;;;5114303;28;20020;-74
2022/10/12 00:17:04;;;;;;;10.10;4.85;;;9.50;70.70;;;;;;5114285;28;20421;-73
2022/10/12 00:19:30;;;;;;;7.97;4.80;;;9.70;70.60;;;;;;5113544;28;20028;-73
2022/10/12 00:21:56;;;;;;;10.25;5.00;;;9.60;70.60;;;;;;5114180;28;20043;-73
2022/10/12 00:24:21;;;;;;;8.57;4.57;;;9.50;70.70;;;;;;5114283;28;20032;-73
2022/10/12 00:26:49;;;;;;;10.68;5.00;;;9.60;71.00;;;;;;5114099;28;20036;-73
2022/10/12 00:29:15;;;;;;;8.55;4.55;;;9.60;70.80;;;;;;5113984;28;20028;-73
2022/10/12 00:31:40;;;;;;;7.50;4.70;;;9.70;70.60;;;;;;5113962;28;20032;-73
2022/10/12 00:34:06;;;;;;;13.60;5.30;;;9.50;70.70;;;;;;5113996;28;20043;-73
2022/10/12 00:36:34;;;;;;;9.77;5.10;;;9.70;70.90;;;;;;5113952;28;20032;-73
2022/10/12 00:39:02;;;;;;;8.18;4.45;;;9.60;70.90;;;;;;5095966;28;20016;-74
2022/10/12 00:41:31;;;;;;;8.32;4.72;;;9.70;71.10;;;;;;5113888;28;20174;-73
2022/10/12 00:43:57;;;;;;;9.25;4.60;;;9.70;70.70;;;;;;5113961;28;20024;-73
2022/10/12 00:46:34;;;;;;;10.27;4.60;;;9.50;70.70;;;;;;5113810;28;20028;-73
2022/10/12 00:49:22;;;;;;;8.95;5.00;;;9.60;70.90;;;;;;5113804;28;20024;-73
2022/10/12 00:51:52;;;;;;;9.10;4.68;;;9.60;70.80;;;;;;5113731;28;20028;-73
2022/10/12 00:54:31;;;;;;;10.13;4.97;;;9.60;70.70;;;;;;5113708;28;20040;-73
2022/10/12 00:56:58;;;;;;;9.45;4.80;;;9.60;70.60;;;;;;5113714;28;20024;-73
2022/10/12 00:59:30;;;;;;;10.13;4.68;;;9.70;70.60;;;;;;5113650;28;20032;-74
2022/10/12 01:01:56;;;;;;;10.95;4.70;;;9.60;70.50;;;;;;5113831;28;20050;-74
2022/10/12 01:04:22;;;;;;;8.98;4.57;;;9.70;70.40;;;;;;5095676;28;20028;-74
2022/10/12 01:06:49;;;;;;;11.60;4.95;;;9.60;70.40;;;;;;5113556;28;20028;-73
2022/10/12 01:09:15;;;;;;;9.15;4.72;;;9.60;70.50;;;;;;5113560;28;20057;-73
2022/10/12 01:11:40;;;;;;;8.85;4.65;;;9.60;70.60;;;;;;5113453;28;20081;-73
2022/10/12 01:14:06;;;;;;;9.98;4.70;;;9.60;70.50;;;;;;5113503;28;20032;-73
2022/10/12 01:16:42;;;;;;;8.05;4.40;;;9.60;70.50;;;;;;5113453;28;20032;-73
2022/10/12 01:19:40;;;;;;;8.23;4.28;;;9.40;70.70;;;;;;5113513;28;20024;-73
2022/10/12 01:22:18;;;;;;;11.50;4.00;;;9.40;71.00;;;;;;5087385;28;20036;-73
2022/10/12 01:25:15;;;;;;;9.10;4.55;;;9.30;71.10;;;;;;5113606;28;20062;-73
2022/10/12 01:27:51;;;;;;;8.82;4.68;;;9.40;71.20;;;;;;5113596;28;20043;-73
2022/10/12 01:30:25;;;;;;;12.25;4.93;;;9.40;71.30;;;;;;5114068;28;20017;-73
2022/10/12 01:33:34;;;;;;;8.55;4.00;;;9.50;71.30;;;;;;5117538;28;20016;-73
2022/10/12 01:36:11;;;;;;;9.77;4.20;;;9.50;71.30;;;;;;5117412;28;20087;-73
2022/10/12 01:39:01;;;;;;;9.20;4.05;;;9.50;71.10;;;;;;5117515;28;20027;-73
2022/10/12 01:41:38;;;;;;;9.68;4.60;;;9.40;71.10;;;;;;5117490;28;20020;-73
2022/10/12 01:44:03;;;;;;;10.18;4.93;;;9.40;71.70;;;;;;5117436;28;20084;-73
2022/10/12 01:46:29;;;;;;;11.50;4.68;;;9.30;72.10;;;;;;5117188;28;20032;-73
2022/10/12 01:48:58;;;;;;;10.05;5.03;;;9.20;72.50;;;;;;5117156;28;20092;-73
2022/10/12 01:52:02;;;;;;;8.27;4.72;;;9.30;72.40;;;;;;5117014;28;20027;-74
2022/10/12 01:54:52;;;;;;;9.52;4.53;;;9.40;72.20;;;;;;5117031;28;20068;-73
2022/10/12 01:57:36;;;;;;;7.25;4.60;;;9.30;72.30;;;;;;5117039;28;20025;-74
2022/10/12 02:00:10;;;;;;;6.85;4.60;;;9.40;72.20;;;;;;5116928;28;20026;-73
2022/10/12 02:03:04;;;;;;;9.25;4.63;;;9.40;73.10;;;;;;5116928;28;20028;-73
2022/10/12 02:05:38;;;;;;;9.90;5.20;;;9.40;72.20;;;;;;5116859;28;20471;-73
2022/10/12 02:08:37;;;;;;;9.48;4.35;;;9.40;72.80;;;;;;5116760;28;20111;-73
2022/10/12 02:11:10;;;;;;;8.50;4.40;;;9.30;72.90;;;;;;5116748;28;20016;-73
2022/10/12 02:13:47;;;;;;;11.13;4.15;;;9.30;72.80;;;;;;5116574;28;20043;-73
2022/10/12 02:16:17;;;;;;;9.18;4.80;;;9.40;72.60;;;;;;5116638;28;20024;-73
2022/10/12 02:18:46;;;;;;;10.10;4.97;;;9.50;72.70;;;;;;5116546;28;20019;-73
2022/10/12 02:21:15;;;;;;;9.82;5.32;;;9.30;73.30;;;;;;5116507;28;20047;-73
2022/10/12 02:23:43;;;;;;;10.88;5.00;;;9.30;73.50;;;;;;5116450;28;20020;-73
2022/10/12 02:26:10;;;;;;;9.30;4.97;;;9.40;73.30;;;;;;5116459;28;20533;-73
2022/10/12 02:28:37;;;;;;;11.50;4.57;;;9.40;72.90;;;;;;5116323;28;20024;-73
2022/10/12 02:31:21;;;;;;;8.48;4.38;;;9.30;72.60;;;;;;5116324;28;20068;-73
2022/10/12 02:34:13;;;;;;;7.47;4.03;;;9.20;73.10;;;;;;5116281;28;20031;-74
2022/10/12 02:36:42;;;;;;;9.45;4.38;;;9.10;72.70;;;;;;5116285;28;20059;-74
2022/10/12 02:39:20;;;;;;;6.28;3.85;;;9.00;72.90;;;;;;5116171;28;20088;-73
2022/10/12 02:41:58;;;;;;;6.50;4.00;;;9.00;72.90;;;;;;5115676;28;20016;-73
2022/10/12 02:44:27;;;;;;;9.30;4.13;;;9.00;73.20;;;;;;5116137;28;20023;-73
2022/10/12 02:46:55;;;;;;;6.88;4.35;;;9.00;73.20;;;;;;5116048;28;20023;-74
2022/10/12 02:49:25;;;;;;;8.57;4.18;;;9.00;73.20;;;;;;5115999;28;20016;-74
2022/10/12 02:51:53;;;;;;;7.97;4.00;;;9.00;73.00;;;;;;5116013;28;20024;-73
2022/10/12 02:54:19;;;;;;;9.75;4.13;;;9.00;73.00;;;;;;5115747;28;20130;-73
2022/10/12 02:56:46;;;;;;;8.15;3.60;;;8.90;73.20;;;;;;5115877;28;20103;-73
2022/10/12 02:59:12;;;;;;;8.95;4.18;;;8.90;72.90;;;;;;5115790;28;20035;-73
2022/10/12 03:01:38;;;;;;;10.73;4.90;;;8.80;72.90;;;;;;5115770;28;20084;-73
2022/10/12 03:04:04;;;;;;;9.38;4.57;;;8.80;73.00;;;;;;5115699;28;20368;-73
2022/10/12 03:06:29;;;;;;;7.50;4.13;;;8.80;73.20;;;;;;5115656;28;20032;-73
2022/10/12 03:08:56;;;;;;;8.18;3.45;;;8.90;73.90;;;;;;5097845;28;20092;-73
2022/10/12 03:11:22;;;;;;;7.15;4.22;;;8.80;72.80;;;;;;5115627;28;20105;-73
2022/10/12 03:13:50;;;;;;;7.88;4.40;;;8.80;72.90;;;;;;5115508;28;20032;-73
2022/10/12 03:16:16;;;;;;;5.85;3.70;;;8.80;73.10;;;;;;5115461;28;20042;-73
2022/10/12 03:18:41;;;;;;;11.75;4.07;;;8.60;73.20;;;;;;5115534;28;20032;-73
2022/10/12 03:21:07;;;;;;;6.82;3.80;;;8.60;73.40;;;;;;5115381;28;20027;-73
2022/10/12 03:23:33;;;;;;;9.38;3.88;;;8.70;73.30;;;;;;5115467;28;20033;-73
2022/10/12 03:25:58;;;;;;;7.07;3.67;;;8.70;73.10;;;;;;5115288;28;20049;-73
2022/10/12 03:28:24;;;;;;;6.68;3.50;;;8.60;73.70;;;;;;5115146;28;20032;-73
2022/10/12 03:30:50;;;;;;;6.57;3.00;;;8.60;73.10;;;;;;5115148;28;20039;-73
2022/10/12 03:33:15;;;;;;;5.25;2.88;;;8.50;72.90;;;;;;5115057;28;20062;-73
2022/10/12 03:35:44;;;;;;;3.63;2.78;;;8.50;73.30;;;;;;5115095;28;20029;-73
2022/10/12 03:38:11;;;;;;;5.43;3.00;;;8.60;73.70;;;;;;5115179;28;20075;-73
2022/10/12 03:40:37;;;;;;;6.03;3.30;;;8.50;73.80;;;;;;5115008;28;20024;-73
2022/10/12 03:43:03;;;;;;;6.68;3.38;;;8.50;73.70;;;;;;5114934;28;20032;-73
2022/10/12 03:45:28;;;;;;;8.10;3.22;;;8.60;73.60;;;;;;5114915;28;20050;-74
2022/10/12 03:47:54;;;;;;;6.22;3.30;;;8.70;73.10;;;;;;5114843;28;20032;-73
2022/10/12 03:50:20;;;;;;;3.20;2.40;;;8.70;73.10;;;;;;5114823;28;20061;-73
2022/10/12 03:52:46;;;;;;;6.22;3.28;;;8.70;72.90;;;;;;5114678;28;20109;-73
2022/10/12 03:55:12;;;;;;;3.75;2.58;;;8.60;73.10;;;;;;5113395;28;20119;-74
2022/10/12 03:57:38;;;;;;;5.97;2.33;;;8.50;73.40;;;;;;5114680;28;20083;-74
2022/10/12 04:00:05;;;;;;;3.90;2.30;;;8.30;73.60;;;;;;5114607;28;20088;-73
2022/10/12 04:02:30;;;;;;;4.35;2.80;;;8.30;74.10;;;;;;5096631;28;20036;-73
2022/10/12 04:04:56;;;;;;;5.30;2.60;;;8.20;74.50;;;;;;5096670;28;20036;-73
2022/10/12 04:07:21;;;;;;;4.20;2.90;;;8.20;74.40;;;;;;5114618;28;20035;-73
2022/10/12 04:09:47;;;;;;;6.03;3.15;;;8.20;74.50;;;;;;5114450;28;20034;-74
2022/10/12 04:12:13;;;;;;;6.38;3.17;;;8.10;74.60;;;;;;5079666;28;20028;-73
2022/10/12 04:14:39;;;;;;;4.97;2.50;;;8.20;74.40;;;;;;5114375;28;20039;-73
2022/10/12 04:17:04;;;;;;;6.68;2.97;;;8.20;74.10;;;;;;5114301;28;20089;-73
2022/10/12 04:19:30;;;;;;;4.63;2.58;;;8.10;74.10;;;;;;5114231;28;20028;-73
2022/10/12 04:21:56;;;;;;;6.22;2.85;;;8.10;74.50;;;;;;5114231;28;20084;-73
2022/10/12 04:24:21;;;;;;;7.72;3.05;;;8.00;74.50;;;;;;5114165;28;20062;-73
2022/10/12 04:26:47;;;;;;;4.18;2.55;;;8.00;74.60;;;;;;5114134;28;20039;-73
2022/10/12 04:29:13;;;;;;;4.07;2.97;;;8.10;74.60;;;;;;5114020;28;20032;-73
2022/10/12 04:31:39;;;;;;;8.27;3.47;;;8.00;74.70;;;;;;5113966;28;20031;-73
2022/10/12 04:34:04;;;;;;;6.55;3.33;;;8.00;74.70;;;;;;5114004;28;20024;-74
2022/10/12 04:36:30;;;;;;;8.75;4.07;;;8.10;74.50;;;;;;5113954;28;20431;-73
2022/10/12 04:38:56;;;;;;;7.13;3.17;;;8.20;74.20;;;;;;5096213;28;20028;-73
2022/10/12 04:41:21;;;;;;;5.63;3.35;;;8.10;74.00;;;;;;5113926;28;20112;-73
2022/10/12 04:43:47;;;;;;;5.57;2.80;;;8.00;73.90;;;;;;5113880;28;20020;-73
2022/10/12 04:46:12;;;;;;;6.38;3.40;;;7.90;74.40;;;;;;5113829;28;20041;-73
2022/10/12 04:48:38;;;;;;;5.15;2.85;;;7.80;74.80;;;;;;5096108;28;20024;-73
2022/10/12 04:51:05;;;;;;;9.55;3.53;;;7.70;74.80;;;;;;5095945;28;20035;-73
2022/10/12 04:53:31;;;;;;;6.50;2.90;;;7.70;75.00;;;;;;5113655;28;20040;-73
2022/10/12 04:55:56;;;;;;;6.85;3.03;;;7.90;74.80;;;;;;5113558;28;20043;-73
2022/10/12 04:58:22;;;;;;;9.52;3.13;;;8.00;74.20;;;;;;5113678;28;20027;-73
2022/10/12 05:00:48;;;;;;;4.25;2.80;;;8.00;73.70;;;;;;5113734;28;20028;-73
2022/10/12 05:03:14;;;;;;;4.45;2.53;;;7.90;74.20;;;;;;5113583;28;20491;-73
2022/10/12 05:05:39;;;;;;;4.10;2.30;;;7.80;74.60;;;;;;5113358;28;20055;-73
2022/10/12 05:08:05;;;;;;;5.90;2.53;;;7.70;74.60;;;;;;5113567;28;20035;-73
2022/10/12 05:10:32;;;;;;;4.68;2.70;;;7.80;74.80;;;;;;5095993;28;20020;-73
2022/10/12 05:12:57;;;;;;;6.80;2.88;;;7.90;74.50;;;;;;5113390;28;20036;-73
2022/10/12 05:15:23;;;;;;;4.88;2.35;;;7.90;74.30;;;;;;5113476;28;20028;-73
2022/10/12 05:17:49;;;;;;;3.60;2.50;;;7.90;74.30;;;;;;5113492;28;20020;-73
2022/10/12 05:20:15;;;;;;;3.75;2.35;;;7.90;74.40;;;;;;5113528;28;20050;-74
2022/10/12 05:22:40;;;;;;;3.20;2.35;;;7.80;74.60;;;;;;5113462;28;20081;-74
2022/10/12 05:25:07;;;;;;;4.18;2.33;;;7.90;74.40;;;;;;5113432;28;20028;-74
2022/10/12 05:27:32;;;;;;;3.38;2.17;;;7.90;74.30;;;;;;5113366;28;20028;-73
2022/10/12 05:29:58;;;;;;;3.45;2.35;;;7.80;74.30;;;;;;5113389;28;20092;-73
2022/10/12 05:32:24;;;;;;;3.35;2.20;;;7.70;74.50;;;;;;5113259;28;20040;-74
2022/10/12 05:34:49;;;;;;;6.75;2.47;;;7.60;74.80;;;;;;5113326;28;20032;-74
2022/10/12 05:37:15;;;;;;;4.95;2.45;;;7.60;75.20;;;;;;5113323;28;20032;-73
2022/10/12 05:39:41;;;;;;;5.13;2.80;;;7.60;75.20;;;;;;5113255;28;20025;-74
2022/10/12 05:42:06;;;;;;;6.35;2.97;;;7.60;75.20;;;;;;5113246;28;20028;-74
2022/10/12 05:44:32;;;;;;;3.13;1.70;;;7.60;75.20;;;;;;5113237;28;20051;-74
2022/10/12 05:46:58;;;;;;;3.45;2.13;;;7.60;75.10;;;;;;5113199;28;20036;-73
2022/10/12 05:49:24;;;;;;;5.45;2.25;;;7.50;75.00;;;;;;5113149;28;20092;-73
2022/10/12 05:51:49;;;;;;;6.25;2.20;;;7.60;74.90;;;;;;5113038;28;20036;-73
2022/10/12 05:54:15;;;;;;;5.28;2.45;;;7.70;74.60;;;;;;5112880;28;20059;-74
2022/10/12 05:56:40;;;;;;;4.53;2.40;;;7.70;74.60;;;;;;5095072;28;20131;-73
2022/10/12 05:59:06;;;;;;;7.90;2.47;;;7.60;74.80;;;;;;5113076;28;20020;-73
2022/10/12 06:01:32;;;;;;;3.63;1.88;;;7.60;75.70;;;;;;5113073;28;20019;-73
2022/10/12 06:03:58;;;;;;;3.15;2.65;;;7.60;74.80;;;;;;5113083;28;20024;-73
2022/10/12 06:06:23;;;;;;;3.88;2.40;;;7.50;75.20;;;;;;5113026;28;20441;-74
2022/10/12 06:08:49;;;;;;;7.18;3.00;;;7.50;75.50;;;;;;5112969;28;20032;-73
2022/10/12 06:11:14;;;;;;;10.13;2.90;;;7.50;75.40;;;;;;5113054;28;20035;-73
2022/10/12 06:13:40;;;;;;;3.50;2.15;;;7.40;75.70;;;;;;5112960;28;20024;-73
2022/10/12 06:16:06;;;;;;;4.40;2.63;;;7.40;75.70;;;;;;5112929;28;20084;-73
2022/10/12 06:18:32;;;;;;;4.88;2.35;;;7.40;75.80;;;;;;5097697;28;20044;-73
2022/10/12 06:20:57;;;;;;;3.65;2.30;;;7.40;76.50;;;;;;5116573;28;20020;-74
2022/10/12 06:23:23;;;;;;;6.97;2.83;;;7.40;75.80;;;;;;5116318;28;20031;-73
2022/10/12 06:25:50;;;;;;;7.82;2.97;;;7.50;75.80;;;;;;5116429;28;20032;-73
2022/10/12 06:28:19;;;;;;;6.13;2.60;;;7.50;76.00;;;;;;5116308;28;20024;-73
2022/10/12 06:30:45;;;;;;;5.80;2.72;;;7.60;75.90;;;;;;5116339;28;20016;-72
2022/10/12 06:33:11;;;;;;;6.22;2.88;;;7.70;76.00;;;;;;5116328;28;20024;-72
2022/10/12 06:35:37;;;;;;;6.35;3.17;;;7.80;76.00;;;;;;5116294;28;20031;-72
2022/10/12 06:38:03;;;;;;;4.10;2.53;;;7.80;76.50;;;;;;5116245;28;20021;-72
2022/10/12 06:40:28;;;;;;;13.40;6.88;;;7.80;75.80;;;;;;5116189;28;20036;-72
2022/10/12 06:42:54;;;;;;;8.75;4.15;;;7.80;76.10;;;;;;5116132;28;20046;-71
2022/10/12 06:45:20;;;;;;;9.23;3.25;;;7.80;76.40;;;;;;5116025;28;20391;-71
2022/10/12 06:47:45;;;;;;;7.40;2.83;;;7.80;76.50;;;;;;5116158;28;20092;-72
2022/10/12 06:50:12;;;;;;;6.80;3.50;;;7.90;76.50;;;;;;5116018;28;20080;-71
2022/10/12 06:52:37;;;;;;;6.25;3.40;;;7.80;76.80;;;;;;5115848;28;20028;-71
2022/10/12 06:55:04;;;;;;;8.20;3.65;;;7.90;76.90;;;;;;5115718;28;20083;-71
2022/10/12 06:57:49;;;;;;;10.57;3.95;;;8.00;76.90;;;;;;5115709;28;20027;-71
2022/10/12 07:00:15;;;;;;;7.47;3.45;;;8.10;77.30;;;;;;5100802;28;20029;-71
2022/10/12 07:02:40;;;;;;;6.68;3.50;;;8.20;77.50;;;;;;5115757;28;20088;-71
2022/10/12 07:05:09;;;;;;;11.80;3.92;;;8.20;77.60;;;;;;5115723;28;20028;-71
2022/10/12 07:07:35;;;;;;;6.63;4.15;;;8.30;77.80;;;;;;5115706;28;20024;-72
2022/10/12 07:10:03;;;;;;;13.43;4.78;;;8.30;78.10;;;;;;5115598;28;20028;-71
2022/10/12 07:12:29;;;;;;;13.82;5.18;;;8.30;78.60;;;;;;5097965;28;20471;-71
2022/10/12 07:15:30;;;;;;;10.52;5.13;;;8.40;79.40;;;;;;5097682;28;20105;-71
2022/10/12 07:17:56;;;;;;;12.23;5.35;;;8.50;78.90;;;;;;5036764;28;20034;-71
2022/10/12 07:20:21;;;;;;;12.10;5.63;;;8.50;79.50;;;;;;5102787;28;20036;-72
2022/10/12 07:22:47;;;;;;;12.57;6.25;;;8.50;79.70;;;;;;5115372;28;20040;-71
2022/10/12 07:25:14;;;;;;;16.52;6.03;;;8.50;80.40;;;;;;5115220;28;20059;-72
2022/10/12 07:27:39;;;;;;;12.48;6.00;;;8.50;80.30;;;;;;5097535;28;20119;-72
2022/10/12 07:30:06;;;;;;;15.73;6.65;;;8.60;81.10;;;;;;5114906;28;20028;-72
2022/10/12 07:32:31;;;;;;;10.93;6.38;;;8.70;81.50;;;;;;5097206;28;20054;-72
2022/10/12 07:34:57;;;;;;;14.82;6.80;;;8.70;81.70;;;;;;5097311;28;20035;-72
2022/10/12 07:37:22;;;;;;;16.30;7.18;;;8.70;81.70;;;;;;5115034;28;20044;-72
2022/10/12 07:39:48;;;;;;;14.85;6.95;;;8.80;82.10;;;;;;5114962;28;20024;-72
2022/10/12 07:42:14;;;;;;;19.50;7.93;;;8.80;82.50;;;;;;5114952;28;20092;-72
2022/10/12 07:44:39;;;;;;;16.55;7.72;;;8.80;82.30;;;;;;5114909;28;20036;-72
2022/10/12 07:47:05;;;;;;;14.63;7.65;;;8.90;82.20;;;;;;5114857;28;20051;-72
2022/10/12 07:49:31;;;;;;;15.45;7.45;;;8.90;82.20;;;;;;5114805;28;20024;-71
2022/10/12 07:51:56;;;;;;;17.67;8.10;;;9.00;81.90;;;;;;5114701;28;20036;-72
2022/10/12 07:54:22;;;;;;;23.33;7.72;;;9.10;81.80;;;;;;5114569;28;20028;-72
2022/10/12 07:56:47;;;;;;;14.18;7.95;;;9.20;81.50;;;;;;5114665;28;20028;-72
2022/10/12 07:59:13;;;;;;;14.65;7.90;;;9.20;81.30;;;;;;5114785;28;20035;-72
2022/10/12 08:01:39;;;;;;;20.27;8.40;;;9.30;81.10;;;;;;5114578;28;20052;-72
2022/10/12 08:04:05;;;;;;;16.00;8.15;;;9.30;81.40;;;;;;5114543;28;20028;-72
2022/10/12 08:06:32;;;;;;;14.07;8.15;;;9.30;81.30;;;;;;5114490;28;20028;-72
2022/10/12 08:09:00;;;;;;;15.25;8.27;;;9.30;81.40;;;;;;5114451;28;20109;-72
2022/10/12 08:11:27;;;;;;;17.80;9.32;;;9.30;81.50;;;;;;5114348;28;20029;-72
2022/10/12 08:13:53;;;;;;;24.90;8.73;;;9.40;81.50;;;;;;5114231;28;20020;-72
2022/10/12 08:16:20;;;;;;;21.30;9.15;;;9.40;81.90;;;;;;5114326;28;20020;-72
2022/10/12 08:18:46;;;;;;;16.33;8.43;;;9.50;81.80;;;;;;5096608;28;20048;-72
2022/10/12 08:21:14;;;;;;;16.92;8.77;;;9.50;81.70;;;;;;5114220;28;20355;-71
2022/10/12 08:23:39;;;;;;;19.70;9.02;;;9.50;81.50;;;;;;5114190;28;20028;-72
2022/10/12 08:26:05;;;;;;;17.95;8.73;;;9.60;81.40;;;;;;5096194;28;20035;-72
2022/10/12 08:28:31;;;;;;;16.75;8.73;;;9.70;81.50;;;;;;5114066;28;20080;-72
2022/10/12 08:30:57;;;;;;;15.45;9.60;;;9.80;81.70;;;;;;5114009;28;20092;-72
2022/10/12 08:33:23;;;;;;;21.33;10.68;;;9.90;81.60;;;;;;5113933;28;20032;-72
2022/10/12 08:35:48;;;;;;;23.90;10.43;;;9.90;81.50;;;;;;5096047;28;20024;-72
2022/10/12 08:38:15;;;;;;;17.25;9.85;;;9.80;81.20;;;;;;5113919;28;20016;-72
2022/10/12 08:40:55;;;;;;;23.20;11.32;;;9.90;81.20;;;;;;5095251;28;20031;-72
2022/10/12 08:43:20;;;;;;;23.52;10.90;;;9.90;81.50;;;;;;5113888;28;20032;-72
2022/10/12 08:45:53;;;;;;;27.20;12.32;;;10.00;81.80;;;;;;5095991;28;20049;-71
2022/10/12 08:48:31;;;;;;;24.05;12.13;;;10.10;81.90;;;;;;5113827;28;20048;-71
2022/10/12 08:51:13;;;;;;;23.05;11.75;;;10.20;82.10;;;;;;5113969;28;20035;-71
2022/10/12 08:53:42;;;;;;;26.42;13.25;;;10.30;83.40;;;;;;5096209;28;20024;-72
2022/10/12 08:56:08;;;;;;;23.80;11.45;;;10.30;82.60;;;;;;5113567;28;20052;-72
2022/10/12 08:58:38;;;;;;;24.35;13.30;;;10.40;82.00;;;;;;5096020;28;20013;-72
2022/10/12 09:01:22;;;;;;;23.38;12.18;;;10.50;81.60;;;;;;5113620;28;20020;-72
2022/10/12 09:03:56;;;;;;;28.88;12.98;;;10.50;81.30;;;;;;5113608;28;20027;-72
2022/10/12 09:06:29;;;;;;;29.73;13.10;;;10.70;81.40;;;;;;5113566;28;20105;-74
2022/10/12 09:09:35;;;;;;;25.58;12.32;;;10.80;80.80;;;;;;5113724;28;20020;-73
2022/10/12 09:12:04;;;;;;;28.83;11.93;;;10.90;80.60;;;;;;5081866;28;20063;-73
2022/10/12 09:15:04;;;;;;;25.73;12.57;;;11.10;80.60;;;;;;5113453;28;20020;-69
2022/10/12 09:17:39;;;;;;;23.17;12.27;;;11.20;80.20;;;;;;5014543;28;20161;-68
2022/10/12 09:20:16;;;;;;;26.10;12.45;;;11.30;80.40;;;;;;5113630;28;20023;-68
2022/10/12 09:22:46;;;;;;;22.27;11.77;;;11.40;80.00;;;;;;5113462;28;20032;-69
2022/10/12 09:25:13;;;;;;;25.42;12.63;;;11.50;79.60;;;;;;5113366;28;20082;-68
2022/10/12 09:27:41;;;;;;;30.70;13.00;;;11.70;79.50;;;;;;5113302;28;20024;-69
2022/10/12 09:30:14;;;;;;;23.23;12.23;;;11.80;79.30;;;;;;5095354;28;20052;-68
2022/10/12 09:32:48;;;;;;;25.05;11.98;;;11.90;78.70;;;;;;5113214;28;20035;-68
2022/10/12 09:35:14;;;;;;;24.00;12.45;;;12.00;78.90;;;;;;5095430;28;20028;-68
2022/10/12 09:37:40;;;;;;;25.00;12.07;;;12.20;78.40;;;;;;5113253;28;20030;-67
2022/10/12 09:40:14;;;;;;;27.02;11.95;;;12.20;77.70;;;;;;5113244;28;20052;-67
2022/10/12 09:42:39;;;;;;;27.23;11.60;;;12.40;78.00;;;;;;5113281;28;20024;-67
2022/10/12 09:45:17;;;;;;;26.77;12.40;;;12.60;78.10;;;;;;5095452;28;20039;-67
2022/10/12 09:48:10;;;;;;;23.05;11.52;;;12.80;77.50;;;;;;5113237;28;20024;-68
2022/10/12 09:54:26;;;;;;;22.40;11.88;;;13.00;76.00;;;;;;5116944;28;20039;-67
2022/10/12 09:56:54;;;;;;;23.27;11.60;;;13.00;76.00;;;;;;5099049;28;20044;-67
2022/10/12 09:59:42;;;;;;;22.05;12.30;;;13.00;75.60;;;;;;5117029;28;20023;-67
2022/10/12 10:02:10;;;;;;;25.30;12.43;;;13.10;75.90;;;;;;5116994;28;20024;-67
2022/10/12 10:04:40;;;;;;;27.05;13.18;;;13.10;75.40;;;;;;5116925;28;20062;-67
2022/10/12 10:07:22;;;;;;;26.50;13.13;;;13.10;75.90;;;;;;5116968;28;20017;-67
2022/10/12 10:10:16;;;;;;;23.23;12.75;;;13.10;75.30;;;;;;5116888;28;20024;-67
2022/10/12 10:12:57;;;;;;;26.75;13.68;;;13.30;75.40;;;;;;5098702;28;20024;-67
2022/10/12 10:15:28;;;;;;;25.27;13.15;;;13.40;75.10;;;;;;5116720;28;20107;-67
2022/10/12 10:17:58;;;;;;;30.67;14.02;;;13.50;74.50;;;;;;5116633;28;20080;-67
2022/10/12 10:20:43;;;;;;;23.60;13.45;;;13.50;75.00;;;;;;5116691;28;20030;-67
2022/10/12 10:23:27;;;;;;;26.73;13.43;;;13.50;73.90;;;;;;5116597;28;20052;-67
2022/10/12 10:26:14;;;;;;;26.17;14.15;;;13.60;74.10;;;;;;5116549;28;20026;-68
2022/10/12 10:28:43;;;;;;;25.83;14.18;;;13.70;74.40;;;;;;5116430;28;20020;-67
2022/10/12 10:31:12;;;;;;;25.38;14.85;;;13.80;74.60;;;;;;5116401;28;20109;-67
2022/10/12 10:33:38;;;;;;;25.30;13.90;;;13.90;73.90;;;;;;5116109;28;20053;-67
2022/10/12 10:36:21;;;;;;;26.70;14.40;;;13.90;74.00;;;;;;5116451;28;20027;-67
2022/10/12 10:38:53;;;;;;;28.58;14.30;;;14.00;73.50;;;;;;5116318;28;20024;-68
2022/10/12 10:41:19;;;;;;;28.48;14.82;;;14.10;73.20;;;;;;5116385;28;20016;-67
2022/10/12 10:43:47;;;;;;;24.17;14.50;;;14.20;73.50;;;;;;5116297;28;20091;-67
2022/10/12 10:46:14;;;;;;;26.77;14.15;;;14.30;73.10;;;;;;5116076;28;20045;-67
2022/10/12 10:48:54;;;;;;;22.98;13.55;;;14.40;72.60;;;;;;5116063;28;20528;-67
2022/10/12 10:51:20;;;;;;;23.70;14.07;;;14.50;71.90;;;;;;5116047;28;20020;-68
2022/10/12 10:53:48;;;;;;;25.35;13.95;;;14.60;71.10;;;;;;5115894;28;20047;-67
2022/10/12 10:56:20;;;;;;;25.95;13.45;;;14.60;71.40;;;;;;5115691;28;20047;-67
2022/10/12 10:58:54;;;;;;;26.92;13.20;;;14.80;70.50;;;;;;5115962;28;20042;-68
2022/10/12 11:01:32;;;;;;;25.00;13.50;;;14.80;69.80;;;;;;5115864;28;20024;-67
2022/10/12 11:04:03;;;;;;;24.80;13.40;;;14.80;70.00;;;;;;5115141;28;20084;-67
2022/10/12 11:06:36;;;;;;;25.85;13.13;;;15.00;70.50;;;;;;5115907;28;20020;-67
2022/10/12 11:09:16;;;;;;;19.83;12.13;;;15.10;70.20;;;;;;5115838;28;20031;-67
2022/10/12 11:11:44;;;;;;;19.60;11.60;;;15.30;69.80;;;;;;5115589;28;20024;-67
2022/10/12 11:14:24;;;;;;;20.83;11.68;;;15.30;68.70;;;;;;5097610;28;20029;-67
2022/10/12 11:17:02;;;;;;;24.20;11.98;;;15.40;68.60;;;;;;5115576;28;20087;-67
2022/10/12 11:19:44;;;;;;;20.05;12.02;;;15.60;69.10;;;;;;5115531;28;20020;-67
2022/10/12 11:22:24;;;;;;;24.35;12.73;;;15.70;68.20;;;;;;5115434;28;20091;-67
2022/10/12 11:25:01;;;;;;;22.67;11.50;;;15.80;68.50;;;;;;5115369;28;20024;-67
2022/10/12 11:27:37;;;;;;;18.80;10.48;;;15.70;67.20;;;;;;5115340;28;20031;-67
2022/10/12 11:30:12;;;;;;;18.83;9.98;;;15.70;67.10;;;;;;5115174;28;20031;-67
2022/10/12 11:32:42;;;;;;;25.60;11.35;;;15.70;65.90;;;;;;5115164;28;20027;-67
2022/10/12 11:35:19;;;;;;;27.10;10.07;;;15.80;66.70;;;;;;5115133;28;20024;-67
2022/10/12 11:37:54;;;;;;;13.85;8.57;;;15.80;66.00;;;;;;5115137;28;20016;-67
2022/10/12 11:40:30;;;;;;;19.02;9.13;;;15.80;64.60;;;;;;5115105;28;20016;-67
2022/10/12 11:42:58;;;;;;;17.25;8.85;;;15.80;63.50;;;;;;5115204;28;20058;-67
2022/10/12 11:45:29;;;;;;;18.80;9.35;;;15.70;65.30;;;;;;5114961;28;20028;-67
2022/10/12 11:48:01;;;;;;;15.07;8.85;;;15.70;65.50;;;;;;5097015;28;20169;-67
2022/10/12 11:50:41;;;;;;;14.60;8.15;;;15.80;65.80;;;;;;5114896;28;20024;-66
2022/10/12 11:53:19;;;;;;;17.25;8.73;;;15.80;64.10;;;;;;5114766;28;20023;-66
2022/10/12 11:56:06;;;;;;;16.15;8.27;;;15.80;64.40;;;;;;5114677;28;20040;-67
2022/10/12 11:58:38;;;;;;;15.52;8.70;;;15.80;64.60;;;;;;5114763;28;20024;-67
2022/10/12 12:01:28;;;;;;;21.02;9.13;;;16.00;64.60;;;;;;5114713;28;20019;-67
2022/10/12 12:04:21;;;;;;;18.80;8.93;;;16.10;64.30;;;;;;5096681;28;20372;-67
2022/10/12 12:06:47;;;;;;;;;;;16.20;63.70;;;;;;5114796;28;20020;-67
2022/10/12 12:09:35;;;;;;;17.17;8.45;;;16.10;64.40;;;;;;5114505;28;19910;-67
2022/10/12 12:12:26;;;;;;;16.30;8.30;;;16.10;61.60;;;;;;5114409;28;20087;-67
2022/10/12 12:14:51;;;;;;;16.40;8.02;;;15.90;62.70;;;;;;5113587;28;20024;-67
2022/10/12 12:17:17;;;;;;;20.15;8.90;;;15.90;64.00;;;;;;5114322;28;20099;-66
2022/10/12 12:19:48;;;;;;;21.55;8.10;;;15.90;64.10;;;;;;5114302;28;20024;-67
2022/10/12 12:22:32;;;;;;;16.95;8.15;;;15.90;63.50;;;;;;5114410;28;20024;-67
2022/10/12 12:25:07;;;;;;;15.43;7.88;;;15.90;63.00;;;;;;5114264;28;20024;-68
2022/10/12 12:27:53;;;;;;;12.70;7.50;;;15.80;61.40;;;;;;5096139;28;20028;-68
2022/10/12 12:30:18;;;;;;;14.98;7.72;;;15.80;61.50;;;;;;5096114;28;20028;-67
2022/10/12 12:32:49;;;;;;;14.43;7.82;;;15.80;61.80;;;;;;5114165;28;20035;-68
2022/10/12 12:35:23;;;;;;;25.58;8.07;;;15.80;62.40;;;;;;5114089;28;20033;-67
2022/10/12 12:37:59;;;;;;;14.23;7.35;;;15.80;62.50;;;;;;5114047;28;20020;-67
2022/10/12 12:40:25;;;;;;;12.73;6.85;;;15.80;61.80;;;;;;5114139;28;20020;-67
2022/10/12 12:42:50;;;;;;;16.65;7.80;;;15.80;61.70;;;;;;5113936;28;20064;-67
2022/10/12 12:45:31;;;;;;;18.17;7.57;;;15.80;61.60;;;;;;5095949;28;20028;-67
2022/10/12 12:47:57;;;;;;;16.13;7.40;;;15.80;61.00;;;;;;5113834;28;20028;-67
2022/10/12 12:50:34;;;;;;;15.65;8.20;;;15.80;62.50;;;;;;5096151;28;20035;-67
2022/10/12 12:53:11;;;;;;;15.55;7.72;;;15.80;62.20;;;;;;5113889;28;20039;-67
2022/10/12 12:55:46;;;;;;;17.75;8.23;;;15.80;62.60;;;;;;5113695;28;20044;-67
2022/10/12 12:58:33;;;;;;;14.50;7.22;;;15.80;63.60;;;;;;5095996;28;20048;-67
2022/10/12 13:01:39;;;;;;;18.25;7.60;;;15.70;62.70;;;;;;5113716;28;20073;-67
2022/10/12 13:04:22;;;;;;;14.63;6.50;;;15.80;63.50;;;;;;5051367;28;20041;-67
2022/10/12 13:07:08;;;;;;;13.82;6.45;;;15.80;63.10;;;;;;5051706;28;20064;-67